createdAt,value
2018-04-29T14:02:07.902Z,16.88
2018-04-29T14:03:08.373Z,438.75
2018-04-29T14:05:01.916Z,461.25
2018-04-29T14:06:03.465Z,478.13
2018-04-29T14:07:57.360Z,478.13
2018-04-29T14:08:57.187Z,461.25
2018-04-29T14:10:52.723Z,438.75
2018-04-29T14:11:53.139Z,433.13
2018-04-29T14:13:47.251Z,450.00
2018-04-29T14:14:47.067Z,478.13
2018-04-29T14:16:42.457Z,489.38
2018-04-29T14:17:41.554Z,495.00
2018-04-29T14:19:36.227Z,388.13
2018-04-29T14:20:36.034Z,416.25
2018-04-29T14:22:31.485Z,523.13
2018-04-29T14:23:32.494Z,506.25
2018-04-29T14:25:25.062Z,551.25
2018-04-29T14:26:26.686Z,596.25
2018-04-29T14:28:19.663Z,495.00
2018-04-29T14:29:19.714Z,523.13
2018-04-29T14:31:14.518Z,506.25
2018-04-29T14:32:14.940Z,506.25
2018-04-29T14:34:08.903Z,500.63
2018-04-29T14:35:09.442Z,495.00
2018-04-29T14:37:05.559Z,517.50
2018-04-29T14:38:05.118Z,506.25
2018-04-29T14:39:59.877Z,399.38
2018-04-29T14:41:00.583Z,331.88
2018-04-29T14:42:54.758Z,348.75
2018-04-29T14:43:54.350Z,410.63
2018-04-29T14:45:47.953Z,433.13
2018-04-29T14:46:47.911Z,433.13
2018-04-29T14:48:43.044Z,410.63
2018-04-29T14:49:42.680Z,405.00
2018-04-29T14:51:37.831Z,483.75
2018-04-29T14:52:38.129Z,585.00
2018-04-29T14:54:32.476Z,545.63
2018-04-29T14:55:35.044Z,523.13
2018-04-29T14:57:28.858Z,489.38
2018-04-29T14:58:28.904Z,534.38
2018-04-29T15:00:26.035Z,500.63
2018-04-29T15:01:24.320Z,489.38
2018-04-29T15:03:18.913Z,500.63
2018-04-29T15:04:18.914Z,478.13
2018-04-29T15:06:12.803Z,450.00
2018-04-29T15:07:12.905Z,427.50
2018-04-29T15:09:07.489Z,405.00
2018-04-29T15:10:07.067Z,388.13
2018-04-29T15:12:02.696Z,444.38
2018-04-29T15:13:02.134Z,483.75
2018-04-29T15:14:58.853Z,433.13
2018-04-29T15:15:57.194Z,410.63
2018-04-29T15:17:52.419Z,545.63
2018-04-29T15:18:51.109Z,540.00
2018-04-29T15:20:46.765Z,1411.88
2018-04-29T15:29:05.778Z,388.13
2018-04-29T15:30:06.542Z,348.75
2018-04-29T15:32:01.488Z,298.13
2018-04-29T15:33:00.191Z,264.38
2018-04-29T15:34:54.554Z,241.88
2018-04-29T15:35:54.941Z,253.13
2018-04-29T15:37:49.683Z,309.38
2018-04-29T15:38:57.778Z,320.63
2018-04-29T15:40:53.502Z,270.00
2018-04-29T15:41:53.944Z,230.63
2018-04-29T15:43:38.138Z,185.63
2018-04-29T15:44:38.146Z,174.38
2018-04-29T15:46:34.445Z,264.38
2018-04-29T15:47:33.573Z,331.88
2018-04-29T15:49:28.088Z,551.25
2018-04-29T15:50:28.431Z,630.00
2018-04-29T15:52:22.225Z,517.50
2018-04-29T15:53:22.283Z,421.88
2018-04-29T15:55:16.575Z,281.25
2018-04-29T15:56:17.366Z,247.50
2018-04-29T15:58:16.858Z,247.50
2018-04-29T15:59:16.047Z,241.88
2018-04-29T16:01:11.202Z,191.25
2018-04-29T16:02:12.589Z,174.38
2018-04-29T16:04:05.450Z,135.00
2018-04-29T16:05:05.312Z,123.75
2018-04-29T16:07:02.485Z,118.13
2018-04-29T16:08:01.589Z,112.50
2018-04-29T16:09:55.383Z,112.50
2018-04-29T16:10:58.544Z,118.13
2018-04-29T16:12:48.249Z,129.38
2018-04-29T16:13:48.869Z,135.00
2018-04-29T16:15:45.297Z,146.25
2018-04-29T16:16:47.530Z,146.25
2018-04-29T16:18:39.951Z,146.25
2018-04-29T16:19:39.352Z,140.63
2018-04-29T16:21:35.070Z,140.63
2018-04-29T16:22:36.329Z,140.63
2018-04-29T16:24:28.770Z,135.00
2018-04-29T16:25:29.125Z,135.00
2018-04-29T16:27:39.453Z,135.00
2018-04-29T16:28:24.663Z,123.75
2018-04-29T16:30:19.157Z,101.25
2018-04-29T16:31:20.102Z,95.63
2018-04-29T16:33:24.495Z,90.00
2018-04-29T16:34:13.987Z,90.00
2018-04-29T16:38:08.725Z,101.25
2018-04-29T16:39:10.019Z,95.63
2018-04-29T16:41:03.196Z,95.63
2018-04-29T16:42:06.023Z,101.25
2018-04-29T16:43:57.920Z,146.25
2018-04-29T16:44:58.936Z,174.38
2018-04-29T16:46:53.904Z,219.38
2018-04-29T16:47:54.149Z,241.88
2018-04-29T16:49:50.608Z,264.38
2018-04-29T16:50:49.414Z,270.00
2018-04-29T16:52:41.858Z,270.00
2018-04-29T16:53:42.626Z,264.38
2018-04-29T16:55:39.399Z,247.50
2018-04-29T16:58:32.522Z,219.38
2018-04-29T16:59:31.394Z,208.13
2018-04-29T17:01:27.669Z,174.38
2018-04-29T17:02:27.062Z,157.50
2018-04-29T17:04:21.276Z,135.00
2018-04-29T17:05:21.172Z,129.38
2018-04-29T17:07:15.820Z,118.13
2018-04-29T17:08:16.223Z,118.13
2018-04-29T17:10:09.634Z,123.75
2018-04-29T17:11:09.430Z,135.00
2018-04-29T17:13:03.893Z,163.13
2018-04-29T17:14:04.162Z,174.38
2018-04-29T17:15:58.138Z,208.13
2018-04-29T17:16:58.818Z,213.75
2018-04-29T17:18:57.508Z,219.38
2018-04-29T17:19:56.880Z,213.75
2018-04-29T17:21:52.097Z,168.75
2018-04-29T17:22:52.217Z,146.25
2018-04-29T17:24:46.143Z,118.13
2018-04-29T17:25:45.782Z,101.25
2018-04-29T17:27:41.503Z,95.63
2018-04-29T17:28:41.573Z,101.25
2018-04-29T17:30:36.405Z,123.75
2018-04-29T17:31:37.331Z,151.88
2018-04-29T17:33:32.362Z,174.38
2018-04-29T17:36:02.356Z,168.75
2018-04-29T17:37:01.175Z,168.75
2018-04-29T17:38:57.233Z,163.13
2018-04-29T17:39:56.038Z,157.50
2018-04-29T17:41:49.472Z,151.88
2018-04-29T17:42:49.795Z,146.25
2018-04-29T17:44:42.572Z,135.00
2018-04-29T17:45:43.047Z,135.00
2018-04-29T17:47:37.667Z,129.38
2018-04-29T17:48:36.930Z,123.75
2018-04-29T17:50:32.260Z,123.75
2018-04-29T17:51:32.582Z,129.38
2018-04-29T17:53:43.829Z,151.88
2018-04-29T17:58:39.679Z,163.13
2018-04-29T18:01:35.505Z,157.50
2018-04-29T18:02:35.979Z,151.88
2018-04-29T18:04:29.681Z,135.00
2018-04-29T18:05:29.524Z,118.13
2018-04-29T18:07:24.802Z,95.63
2018-04-29T18:09:40.710Z,67.50
2018-04-29T18:10:41.191Z,61.88
2018-04-29T18:12:33.515Z,56.25
2018-04-29T18:13:33.599Z,56.25
2018-04-29T18:15:29.874Z,61.88
2018-04-29T18:18:22.433Z,61.88
2018-04-29T18:19:20.996Z,61.88
2018-04-29T18:21:30.627Z,56.25
2018-04-29T18:22:30.429Z,50.63
2018-04-29T18:24:36.018Z,39.38
2018-04-29T18:25:25.985Z,39.38
2018-04-29T18:27:22.381Z,39.38
2018-04-29T18:28:20.582Z,39.38
2018-04-29T18:30:27.715Z,39.38
2018-04-29T18:33:23.379Z,33.75
2018-04-29T18:34:25.474Z,28.13
2018-04-29T18:36:15.534Z,28.13
2018-04-29T18:37:16.902Z,22.50
2018-04-29T18:39:10.997Z,16.88
2018-04-29T18:40:11.207Z,16.88
2018-04-29T18:42:05.426Z,11.25
2018-04-29T18:43:05.124Z,11.25
2018-04-29T18:44:59.468Z,11.25
2018-04-29T18:46:00.517Z,5.63
2018-04-29T18:47:53.457Z,5.63
2018-04-29T18:48:53.480Z,5.63
2018-04-29T18:50:47.373Z,5.63
2018-04-29T18:51:46.747Z,5.63
2018-04-29T18:53:42.307Z,5.63
2018-04-29T18:54:41.828Z,5.63
2018-04-29T18:56:47.543Z,0.00
2018-04-29T18:57:48.625Z,0.00
2018-04-29T18:59:40.987Z,0.00
2018-04-29T19:00:41.897Z,0.00
2018-04-29T19:02:34.936Z,0.00
2018-04-29T19:03:36.398Z,0.00
2018-04-29T19:05:42.689Z,0.00
2018-04-29T19:06:42.103Z,0.00
2018-04-29T19:08:39.152Z,0.00
2018-04-29T19:09:38.817Z,0.00
2018-04-29T19:11:33.163Z,0.00
2018-04-29T19:12:33.140Z,0.00
2018-04-29T19:14:30.182Z,0.00
2018-04-29T19:15:30.216Z,0.00
2018-04-29T19:17:25.825Z,0.00
2018-04-29T19:18:24.297Z,0.00
2018-04-29T19:20:23.149Z,0.00
2018-04-29T19:21:21.536Z,0.00
2018-04-29T19:23:19.952Z,0.00
2018-04-29T19:24:16.643Z,0.00
2018-04-29T19:26:11.928Z,0.00
2018-04-29T19:27:14.166Z,0.00
2018-04-29T19:29:19.327Z,0.00
2018-04-29T19:30:20.191Z,0.00
2018-04-29T19:32:14.317Z,0.00
2018-04-29T19:35:10.034Z,0.00
2018-04-29T19:36:08.501Z,0.00
2018-04-29T19:38:10.459Z,0.00
2018-04-29T19:39:04.836Z,0.00
2018-04-29T19:41:22.649Z,0.00
2018-04-29T19:42:22.363Z,0.00
2018-04-29T19:44:23.935Z,0.00
2018-04-29T19:47:17.038Z,0.00
2018-04-29T19:50:56.836Z,0.00
2018-04-29T19:51:53.426Z,0.00
2018-04-29T19:53:51.451Z,0.00
2018-04-29T19:56:46.632Z,0.00
2018-04-29T19:57:45.959Z,0.00
2018-04-29T19:59:44.490Z,0.00
2018-04-29T20:00:44.994Z,0.00
2018-04-29T20:02:39.931Z,0.00
2018-04-29T20:03:39.634Z,0.00
2018-04-29T20:06:00.427Z,0.00
2018-04-29T20:07:01.246Z,0.00
2018-04-29T20:08:54.517Z,0.00
2018-04-29T20:09:55.596Z,0.00
2018-04-29T20:11:50.400Z,0.00
2018-04-29T20:14:33.582Z,0.00
2018-04-29T20:15:31.910Z,0.00
2018-04-29T20:17:27.114Z,0.00
2018-04-29T20:18:38.531Z,0.00
2018-04-29T20:20:22.990Z,0.00
2018-04-29T20:21:21.379Z,0.00
2018-04-29T20:23:16.564Z,0.00
2018-04-29T20:24:16.604Z,0.00
2018-04-29T20:26:16.097Z,0.00
2018-04-29T20:27:16.004Z,0.00
2018-04-29T20:29:10.134Z,0.00
2018-04-29T20:30:09.246Z,0.00
2018-04-29T20:32:05.214Z,0.00
2018-04-29T20:33:03.061Z,0.00
2018-04-29T20:35:04.388Z,0.00
2018-04-29T20:40:40.842Z,0.00
2018-04-29T20:41:39.852Z,0.00
2018-04-29T20:46:09.192Z,0.00
2018-04-29T20:47:10.881Z,0.00
2018-04-29T20:49:05.029Z,0.00
2018-04-29T20:50:05.286Z,0.00
2018-04-29T20:52:00.858Z,0.00
2018-04-29T20:52:58.878Z,0.00
2018-04-29T20:55:08.369Z,0.00
2018-04-29T20:59:00.933Z,0.00
2018-04-29T20:59:59.856Z,0.00
2018-04-29T21:01:56.555Z,0.00
2018-04-29T21:02:55.916Z,0.00
2018-04-29T21:04:48.669Z,0.00
2018-04-29T21:05:49.581Z,0.00
2018-04-29T21:07:43.398Z,0.00
2018-04-29T21:08:43.560Z,0.00
2018-04-29T21:10:37.544Z,0.00
2018-04-29T21:11:37.550Z,0.00
2018-04-29T21:13:34.489Z,0.00
2018-04-29T21:14:31.928Z,0.00
2018-04-29T21:16:26.520Z,0.00
2018-04-29T21:17:27.792Z,0.00
2018-04-29T21:19:21.658Z,0.00
2018-04-29T21:20:22.547Z,0.00
2018-04-29T21:22:14.966Z,0.00
2018-04-29T21:23:16.409Z,0.00
2018-04-29T21:25:08.955Z,0.00
2018-04-29T21:26:10.255Z,0.00
2018-04-29T21:28:15.043Z,0.00
2018-04-29T21:29:16.294Z,0.00
2018-04-29T21:31:10.334Z,0.00
2018-04-29T21:32:10.823Z,0.00
2018-04-29T21:34:05.316Z,0.00
2018-04-29T21:35:05.722Z,0.00
2018-04-29T21:36:59.187Z,0.00
2018-04-29T21:38:00.808Z,0.00
2018-04-29T21:39:55.004Z,0.00
2018-04-29T21:40:55.099Z,0.00
2018-04-29T21:42:49.433Z,0.00
2018-04-29T21:43:48.924Z,0.00
2018-04-29T21:45:44.176Z,0.00
2018-04-29T21:46:45.059Z,0.00
2018-04-29T21:48:40.835Z,0.00
2018-04-29T21:49:39.228Z,0.00
2018-04-29T21:51:33.721Z,0.00
2018-04-29T21:52:33.659Z,0.00
2018-04-29T21:54:32.836Z,0.00
2018-04-29T21:57:01.388Z,0.00
2018-04-29T21:58:00.329Z,0.00
2018-04-29T21:59:54.900Z,0.00
2018-04-29T22:00:54.649Z,0.00
2018-04-29T22:02:49.931Z,0.00
2018-04-29T22:03:49.909Z,0.00
2018-04-29T22:05:44.455Z,0.00
2018-04-29T22:06:44.155Z,0.00
2018-04-29T22:08:40.003Z,0.00
2018-04-29T22:09:48.097Z,0.00
2018-04-29T22:11:34.049Z,0.00
2018-04-29T22:12:33.744Z,0.00
2018-04-29T22:14:28.643Z,0.00
2018-04-29T22:15:28.088Z,0.00
2018-04-29T22:17:24.976Z,0.00
2018-04-29T22:18:24.801Z,0.00
2018-04-29T22:20:19.496Z,0.00
2018-04-29T22:21:19.536Z,0.00
2018-04-29T22:23:14.013Z,0.00
2018-04-29T22:24:13.554Z,0.00
2018-04-29T22:26:07.219Z,0.00
2018-04-29T22:27:07.177Z,0.00
2018-04-29T22:29:01.728Z,0.00
2018-04-29T22:30:01.355Z,0.00
2018-04-29T22:31:56.351Z,0.00
2018-04-29T22:32:56.258Z,0.00
2018-04-29T22:34:50.920Z,0.00
2018-04-29T22:35:50.658Z,0.00
2018-04-29T22:37:45.083Z,0.00
2018-04-29T22:38:44.943Z,0.00
2018-04-29T22:40:39.549Z,0.00
2018-04-29T22:41:39.234Z,0.00
2018-04-29T22:43:33.872Z,0.00
2018-04-29T22:44:33.785Z,0.00
2018-04-29T22:46:28.134Z,0.00
2018-04-29T22:47:28.240Z,0.00
2018-04-29T22:49:25.108Z,0.00
2018-04-29T22:50:26.451Z,0.00
2018-04-29T22:52:18.475Z,0.00
2018-04-29T22:53:19.867Z,0.00
2018-04-29T22:55:12.883Z,0.00
2018-04-29T22:56:12.650Z,0.00
2018-04-29T22:58:07.418Z,0.00
2018-04-29T22:59:07.075Z,0.00
2018-04-29T23:01:01.806Z,0.00
2018-04-29T23:02:01.551Z,0.00
2018-04-29T23:03:57.509Z,0.00
2018-04-29T23:04:57.347Z,0.00
2018-04-29T23:06:53.311Z,0.00
2018-04-29T23:07:53.209Z,0.00
2018-04-29T23:09:47.947Z,0.00
2018-04-29T23:10:47.633Z,0.00
2018-04-29T23:12:41.964Z,0.00
2018-04-29T23:13:42.695Z,0.00
2018-04-29T23:15:36.511Z,0.00
2018-04-29T23:16:36.468Z,0.00
2018-04-29T23:18:30.842Z,0.00
2018-04-29T23:19:30.781Z,0.00
2018-04-29T23:21:25.210Z,0.00
2018-04-29T23:22:25.337Z,0.00
2018-04-29T23:24:19.665Z,0.00
2018-04-29T23:25:19.475Z,0.00
2018-04-29T23:27:15.773Z,0.00
2018-04-29T23:28:15.279Z,0.00
2018-04-29T23:30:09.959Z,0.00
2018-04-29T23:31:09.768Z,0.00
2018-04-29T23:33:12.835Z,0.00
2018-04-29T23:34:12.894Z,0.00
2018-04-29T23:35:58.454Z,0.00
2018-04-29T23:37:07.552Z,0.00
2018-04-29T23:38:53.066Z,0.00
2018-04-29T23:39:52.866Z,0.00
2018-04-29T23:41:46.513Z,0.00
2018-04-29T23:42:46.255Z,0.00
2018-04-29T23:44:40.738Z,0.00
2018-04-29T23:45:40.796Z,0.00
2018-04-29T23:47:35.221Z,0.00
2018-04-29T23:48:34.975Z,0.00
2018-04-29T23:50:29.780Z,0.00
2018-04-29T23:51:29.647Z,0.00
2018-04-29T23:53:24.010Z,0.00
2018-04-29T23:54:23.765Z,0.00
2018-04-29T23:56:18.432Z,0.00
2018-04-29T23:57:18.485Z,0.00
2018-04-29T23:59:13.429Z,0.00
